createdAt,value
2019-04-04T00:00:47.012Z,21.05
2019-04-04T00:03:15.801Z,20.33
2019-04-04T00:05:44.460Z,18.20
2019-04-04T00:08:13.193Z,20.15
2019-04-04T00:10:41.850Z,26.62
2019-04-04T00:13:11.121Z,11.68
2019-04-04T00:15:40.421Z,14.00
2019-04-04T00:18:09.090Z,19.20
2019-04-04T00:20:38.943Z,18.40
2019-04-04T00:23:07.942Z,22.05
2019-04-04T00:25:36.647Z,21.50
2019-04-04T00:28:05.342Z,17.80
2019-04-04T00:30:34.030Z,18.70
2019-04-04T00:33:03.135Z,16.53
2019-04-04T00:35:31.873Z,17.85
2019-04-04T00:38:00.761Z,21.23
2019-04-04T00:40:29.457Z,15.33
2019-04-04T00:42:58.121Z,15.03
2019-04-04T00:45:28.608Z,22.17
2019-04-04T00:47:57.277Z,14.00
2019-04-04T00:50:26.453Z,17.80
2019-04-04T00:52:55.301Z,16.05
2019-04-04T00:55:24.022Z,16.73
2019-04-04T00:57:52.934Z,19.05
2019-04-04T01:00:22.020Z,23.70
2019-04-04T01:02:52.958Z,18.17
2019-04-04T01:05:21.618Z,25.03
2019-04-04T01:07:50.698Z,15.50
2019-04-04T01:10:19.640Z,17.77
2019-04-04T01:12:48.313Z,20.40
2019-04-04T01:15:17.208Z,16.87
2019-04-04T01:17:46.085Z,19.20
2019-04-04T01:20:15.128Z,18.50
2019-04-04T01:22:44.183Z,21.40
2019-04-04T01:25:13.198Z,27.20
2019-04-04T01:27:41.937Z,17.07
2019-04-04T01:30:12.553Z,18.67
2019-04-04T01:32:41.467Z,15.83
2019-04-04T01:35:10.298Z,25.93
2019-04-04T01:37:39.033Z,15.93
2019-04-04T01:40:07.916Z,22.93
2019-04-04T01:42:38.705Z,15.93
2019-04-04T01:45:07.659Z,19.45
2019-04-04T01:47:36.617Z,18.43
2019-04-04T01:50:06.225Z,19.48
2019-04-04T01:52:35.620Z,18.52
2019-04-04T01:55:05.022Z,25.20
2019-04-04T01:57:33.864Z,23.75
2019-04-04T02:00:02.959Z,24.47
2019-04-04T02:02:32.105Z,19.65
2019-04-04T02:05:00.985Z,18.27
2019-04-04T02:07:30.493Z,27.17
2019-04-04T02:09:59.357Z,21.67
2019-04-04T02:12:28.505Z,16.83
2019-04-04T02:14:57.189Z,24.40
2019-04-04T02:17:26.122Z,17.73
2019-04-04T02:19:56.321Z,18.00
2019-04-04T02:22:25.166Z,18.32
2019-04-04T02:24:53.930Z,16.73
2019-04-04T02:27:22.753Z,25.50
2019-04-04T02:29:51.681Z,20.65
2019-04-04T02:32:20.716Z,20.83
2019-04-04T02:34:49.433Z,21.53
2019-04-04T02:37:21.110Z,22.63
2019-04-04T02:39:49.445Z,19.23
2019-04-04T02:42:21.109Z,20.32
2019-04-04T02:44:48.725Z,29.93
2019-04-04T02:47:18.348Z,28.57
2019-04-04T02:49:47.139Z,21.60
2019-04-04T02:52:15.997Z,24.33
2019-04-04T02:54:44.928Z,18.17
2019-04-04T02:57:13.709Z,18.50
2019-04-04T02:59:42.737Z,18.03
2019-04-04T03:02:11.485Z,18.17
2019-04-04T03:04:40.422Z,34.97
2019-04-04T03:07:09.358Z,28.83
2019-04-04T03:09:42.041Z,26.13
2019-04-04T03:12:08.941Z,19.70
2019-04-04T03:14:37.671Z,17.12
2019-04-04T03:17:06.356Z,21.77
2019-04-04T03:19:35.017Z,19.77
2019-04-04T03:22:03.701Z,20.87
2019-04-04T03:24:32.378Z,22.83
2019-04-04T03:27:01.327Z,24.17
2019-04-04T03:29:30.439Z,26.50
2019-04-04T03:31:59.094Z,28.73
2019-04-04T03:34:27.763Z,17.53
2019-04-04T03:36:56.513Z,19.53
2019-04-04T03:39:25.183Z,26.43
2019-04-04T03:41:54.066Z,24.30
2019-04-04T03:44:23.036Z,19.00
2019-04-04T03:46:51.786Z,24.53
2019-04-04T03:49:23.209Z,25.83
2019-04-04T03:51:50.922Z,25.43
2019-04-04T03:54:23.482Z,25.63
2019-04-04T03:56:52.499Z,22.53
2019-04-04T03:59:21.372Z,25.00
2019-04-04T04:01:50.207Z,31.33
2019-04-04T04:04:19.161Z,25.33
2019-04-04T04:06:48.237Z,32.70
2019-04-04T04:09:17.154Z,22.60
2019-04-04T04:11:45.915Z,23.50
2019-04-04T04:14:14.700Z,20.70
2019-04-04T04:16:43.607Z,20.50
2019-04-04T04:19:12.266Z,21.17
2019-04-04T04:21:43.240Z,18.80
2019-04-04T04:24:11.602Z,20.50
2019-04-04T04:26:41.994Z,23.57
2019-04-04T04:29:11.344Z,26.97
2019-04-04T04:31:40.318Z,32.40
2019-04-04T04:34:09.842Z,19.83
2019-04-04T04:36:38.995Z,19.77
2019-04-04T04:39:07.814Z,20.17
2019-04-04T04:41:36.564Z,29.20
2019-04-04T04:44:06.615Z,24.00
2019-04-04T04:46:35.658Z,21.07
2019-04-04T04:49:04.446Z,19.20
2019-04-04T04:51:33.299Z,20.37
2019-04-04T04:54:02.214Z,17.67
2019-04-04T04:56:31.842Z,15.63
2019-04-04T04:59:00.973Z,20.00
2019-04-04T05:01:29.662Z,31.13
2019-04-04T05:03:58.311Z,29.40
2019-04-04T05:06:27.312Z,28.03
2019-04-04T05:08:56.003Z,15.10
2019-04-04T05:11:24.917Z,40.08
2019-04-04T05:13:53.681Z,26.10
2019-04-04T05:16:22.413Z,21.87
2019-04-04T05:18:51.218Z,21.60
2019-04-04T05:21:25.396Z,25.27
2019-04-04T05:23:50.650Z,25.12
2019-04-04T05:26:19.653Z,18.40
2019-04-04T05:28:48.462Z,30.65
2019-04-04T05:31:18.270Z,20.02
2019-04-04T05:33:47.698Z,20.20
2019-04-04T05:36:16.915Z,22.37
2019-04-04T05:38:47.235Z,19.85
2019-04-04T05:41:16.606Z,21.82
2019-04-04T05:43:45.849Z,19.32
2019-04-04T05:46:14.526Z,19.52
2019-04-04T05:48:43.185Z,18.50
2019-04-04T05:51:14.937Z,17.07
2019-04-04T05:53:44.476Z,22.45
2019-04-04T05:56:15.146Z,27.77
2019-04-04T05:58:43.855Z,16.37
2019-04-04T06:01:14.226Z,24.00
2019-04-04T06:03:43.114Z,16.70
2019-04-04T06:06:11.913Z,20.35
2019-04-04T06:08:43.187Z,21.60
2019-04-04T06:11:11.592Z,15.03
2019-04-04T06:13:40.739Z,16.95
2019-04-04T06:16:09.592Z,18.52
2019-04-04T06:18:38.397Z,23.30
2019-04-04T06:21:07.265Z,18.35
2019-04-04T06:23:36.002Z,17.15
2019-04-04T06:26:07.408Z,22.82
2019-04-04T06:28:35.626Z,22.40
2019-04-04T06:31:04.356Z,25.40
2019-04-04T06:33:35.090Z,19.27
2019-04-04T06:36:03.548Z,22.05
2019-04-04T06:38:32.220Z,14.98
2019-04-04T06:41:01.501Z,14.10
2019-04-04T06:43:30.615Z,16.52
2019-04-04T06:45:59.970Z,24.80
2019-04-04T06:48:29.429Z,17.37
2019-04-04T06:50:59.392Z,17.65
2019-04-04T06:53:28.431Z,16.90
2019-04-04T06:55:59.982Z,19.25
2019-04-04T06:58:28.541Z,17.12
2019-04-04T07:00:57.333Z,15.88
2019-04-04T07:03:27.918Z,27.98
2019-04-04T07:05:56.798Z,16.23
2019-04-04T07:08:25.486Z,16.20
2019-04-04T07:10:58.287Z,17.32
2019-04-04T07:13:27.880Z,15.13
2019-04-04T07:16:06.218Z,16.15
2019-04-04T07:18:26.963Z,13.13
2019-04-04T07:20:58.042Z,15.00
2019-04-04T07:23:28.297Z,21.53
2019-04-04T07:25:57.328Z,16.93
2019-04-04T07:28:26.290Z,13.35
2019-04-04T07:30:55.212Z,12.40
2019-04-04T07:33:24.146Z,19.80
2019-04-04T07:35:53.235Z,15.70
2019-04-04T07:38:22.023Z,18.42
2019-04-04T07:40:50.848Z,14.47
2019-04-04T07:43:20.057Z,18.87
2019-04-04T07:45:48.818Z,14.78
2019-04-04T07:48:18.568Z,15.35
2019-04-04T07:50:51.331Z,19.23
2019-04-04T07:53:19.498Z,16.30
2019-04-04T07:55:48.266Z,12.93
2019-04-04T07:58:17.083Z,14.75
2019-04-04T08:00:45.780Z,16.70
2019-04-04T08:03:14.473Z,12.50
2019-04-04T08:05:43.468Z,18.15
2019-04-04T08:08:12.610Z,18.15
2019-04-04T08:10:41.411Z,19.32
2019-04-04T08:13:10.361Z,13.93
2019-04-04T08:15:39.131Z,14.30
2019-04-04T08:18:07.892Z,13.38
2019-04-04T08:20:36.647Z,14.87
2019-04-04T08:23:05.462Z,15.20
2019-04-04T08:25:34.178Z,15.38
2019-04-04T08:28:03.017Z,13.53
2019-04-04T08:30:31.826Z,10.82
2019-04-04T08:33:00.799Z,13.75
2019-04-04T08:35:29.612Z,14.07
2019-04-04T08:37:58.345Z,13.53
2019-04-04T08:40:27.307Z,14.80
2019-04-04T08:42:56.049Z,21.10
2019-04-04T08:45:24.878Z,12.82
2019-04-04T08:47:53.546Z,14.80
2019-04-04T08:50:22.285Z,18.80
2019-04-04T08:52:51.265Z,11.38
2019-04-04T08:55:19.925Z,13.13
2019-04-04T08:57:49.083Z,15.47
2019-04-04T09:00:17.829Z,13.80
2019-04-04T09:02:46.532Z,15.58
2019-04-04T09:05:15.335Z,16.87
2019-04-04T09:07:44.519Z,15.98
2019-04-04T09:10:13.365Z,14.95
2019-04-04T09:12:42.127Z,10.25
2019-04-04T09:15:11.528Z,10.63
2019-04-04T09:17:40.313Z,19.60
2019-04-04T09:20:09.897Z,11.30
2019-04-04T09:22:40.913Z,10.25
2019-04-04T09:25:10.717Z,10.78
2019-04-04T09:27:40.074Z,12.03
2019-04-04T09:30:09.545Z,13.70
2019-04-04T09:32:38.321Z,17.37
2019-04-04T09:35:07.568Z,9.56
2019-04-04T09:37:36.335Z,15.80
2019-04-04T09:40:05.677Z,15.25
2019-04-04T09:42:34.441Z,16.87
2019-04-04T09:45:03.389Z,16.52
2019-04-04T09:47:32.139Z,11.73
2019-04-04T09:50:01.522Z,14.43
2019-04-04T09:52:30.199Z,15.93
2019-04-04T09:54:58.913Z,12.00
2019-04-04T09:57:27.891Z,15.60
2019-04-04T09:59:56.923Z,11.90
2019-04-04T10:02:25.898Z,11.40
2019-04-04T10:04:54.876Z,11.63
2019-04-04T10:07:25.228Z,10.68
2019-04-04T10:09:54.228Z,11.33
2019-04-04T10:12:22.958Z,15.83
2019-04-04T10:14:51.688Z,13.10
2019-04-04T10:17:20.369Z,11.73
2019-04-04T10:19:49.281Z,11.95
2019-04-04T10:22:18.036Z,10.28
2019-04-04T10:24:46.843Z,9.68
2019-04-04T10:27:15.922Z,15.38
2019-04-04T10:29:45.375Z,8.20
2019-04-04T10:32:14.087Z,11.60
2019-04-04T10:34:42.802Z,15.47
2019-04-04T10:37:11.571Z,10.55
2019-04-04T10:39:40.587Z,15.08
2019-04-04T10:42:09.330Z,13.25
2019-04-04T10:44:38.188Z,11.40
2019-04-04T10:47:06.941Z,13.45
2019-04-04T10:49:35.799Z,5.00
2019-04-04T10:52:04.737Z,14.28
2019-04-04T10:54:33.558Z,10.25
2019-04-04T10:57:02.461Z,8.78
2019-04-04T10:59:31.191Z,9.43
2019-04-04T11:02:00.969Z,16.60
2019-04-04T11:04:30.085Z,13.43
2019-04-04T11:06:58.810Z,9.83
2019-04-04T11:09:27.739Z,9.95
2019-04-04T11:11:57.446Z,11.50
2019-04-04T11:14:28.428Z,8.38
2019-04-04T11:16:56.924Z,13.13
2019-04-04T11:19:31.461Z,10.48
2019-04-04T11:21:56.495Z,8.20
2019-04-04T11:24:25.222Z,9.98
2019-04-04T11:26:53.980Z,10.00
2019-04-04T11:29:23.347Z,9.33
2019-04-04T11:31:52.273Z,13.90
2019-04-04T11:34:21.460Z,8.15
2019-04-04T11:36:50.418Z,7.37
2019-04-04T11:39:19.776Z,20.52
2019-04-04T11:41:48.784Z,13.43
2019-04-04T11:44:17.897Z,10.23
2019-04-04T11:46:47.372Z,8.45
2019-04-04T11:49:16.719Z,9.90
2019-04-04T11:51:45.663Z,9.70
2019-04-04T11:54:14.531Z,6.70
2019-04-04T11:56:43.450Z,9.95
2019-04-04T11:59:12.167Z,7.08
2019-04-04T12:01:42.120Z,10.70
2019-04-04T12:04:11.215Z,8.60
2019-04-04T12:06:44.116Z,7.58
2019-04-04T12:09:12.809Z,11.45
2019-04-04T12:11:41.826Z,10.40
2019-04-04T12:14:12.147Z,8.30
2019-04-04T12:16:40.933Z,9.08
2019-04-04T12:19:09.834Z,8.55
2019-04-04T12:21:38.839Z,10.32
2019-04-04T12:24:07.711Z,3.98
2019-04-04T12:26:36.953Z,8.57
2019-04-04T12:29:06.060Z,11.90
2019-04-04T12:31:34.834Z,9.55
2019-04-04T12:34:03.634Z,4.22
2019-04-04T12:36:32.593Z,10.82
2019-04-04T12:39:01.534Z,6.67
2019-04-04T12:41:30.422Z,8.48
2019-04-04T12:43:59.156Z,5.22
2019-04-04T12:46:27.953Z,14.50
2019-04-04T12:48:56.725Z,5.62
2019-04-04T12:51:25.430Z,6.35
2019-04-04T12:53:54.108Z,11.70
2019-04-04T12:56:22.872Z,10.40
2019-04-04T12:58:51.632Z,13.40
2019-04-04T13:01:21.434Z,9.98
2019-04-04T13:03:50.525Z,10.13
2019-04-04T13:06:19.314Z,7.37
2019-04-04T13:08:48.098Z,8.28
2019-04-04T13:11:16.887Z,8.50
2019-04-04T13:13:45.922Z,5.37
2019-04-04T13:16:14.838Z,6.53
2019-04-04T13:18:44.291Z,7.12
2019-04-04T13:21:13.311Z,7.76
2019-04-04T13:23:42.012Z,9.50
2019-04-04T13:26:11.378Z,9.85
2019-04-04T13:28:40.053Z,8.93
2019-04-04T13:31:09.087Z,7.40
2019-04-04T13:33:37.900Z,6.60
2019-04-04T13:36:06.658Z,17.12
2019-04-04T13:38:35.344Z,7.10
2019-04-04T13:41:04.699Z,10.93
2019-04-04T13:43:33.595Z,9.60
2019-04-04T13:46:02.831Z,7.28
2019-04-04T13:48:31.805Z,8.65
2019-04-04T13:51:00.656Z,8.90
2019-04-04T13:53:30.180Z,9.05
2019-04-04T13:55:59.268Z,9.15
2019-04-04T13:58:28.157Z,8.05
2019-04-04T14:00:57.052Z,12.83
2019-04-04T14:03:26.158Z,7.53
2019-04-04T14:05:55.407Z,8.73
2019-04-04T14:08:24.707Z,7.10
2019-04-04T14:10:58.232Z,7.37
2019-04-04T14:13:26.142Z,3.10
2019-04-04T14:15:55.063Z,9.68
2019-04-04T14:18:24.639Z,8.70
2019-04-04T14:21:03.509Z,11.73
2019-04-04T14:23:25.283Z,10.18
2019-04-04T14:25:54.141Z,7.47
2019-04-04T14:28:22.882Z,9.75
2019-04-04T14:30:52.184Z,9.48
2019-04-04T14:33:21.807Z,7.53
2019-04-04T14:35:50.688Z,7.00
2019-04-04T14:38:19.438Z,6.67
2019-04-04T14:40:48.773Z,7.90
2019-04-04T14:43:17.501Z,7.92
2019-04-04T14:45:46.254Z,7.87
2019-04-04T14:48:15.120Z,7.92
2019-04-04T14:50:43.968Z,8.83
2019-04-04T14:53:12.870Z,9.15
2019-04-04T14:55:41.684Z,6.78
2019-04-04T14:58:10.437Z,4.55
2019-04-04T15:00:39.439Z,12.47
2019-04-04T15:03:08.316Z,8.05
2019-04-04T15:05:37.033Z,10.23
2019-04-04T15:08:06.110Z,4.70
2019-04-04T15:10:35.261Z,11.55
2019-04-04T15:13:04.135Z,5.22
2019-04-04T15:15:33.334Z,7.07
2019-04-04T15:18:02.518Z,5.50
2019-04-04T15:20:34.001Z,11.20
2019-04-04T15:23:03.050Z,7.83
2019-04-04T15:25:31.906Z,6.60
2019-04-04T15:28:01.034Z,3.70
2019-04-04T15:30:30.080Z,9.30
2019-04-04T15:32:59.078Z,5.90
2019-04-04T15:35:27.865Z,5.37
2019-04-04T15:37:56.607Z,4.72
2019-04-04T15:40:25.873Z,9.30
2019-04-04T15:42:54.786Z,6.90
2019-04-04T15:45:23.974Z,9.85
2019-04-04T15:47:53.120Z,13.15
2019-04-04T15:50:23.415Z,4.92
2019-04-04T15:52:53.266Z,8.78
2019-04-04T15:55:22.231Z,10.28
2019-04-04T15:57:50.921Z,9.60
2019-04-04T16:00:20.357Z,8.85
2019-04-04T16:02:49.846Z,13.93
2019-04-04T16:05:18.715Z,12.75
2019-04-04T16:07:47.825Z,15.18
2019-04-04T16:10:16.885Z,19.90
2019-04-04T16:12:45.878Z,10.53
2019-04-04T16:15:14.796Z,18.42
2019-04-04T16:17:43.947Z,10.10
2019-04-04T16:20:13.413Z,8.80
2019-04-04T16:22:43.331Z,8.40
2019-04-04T16:25:12.576Z,5.92
2019-04-04T16:27:41.285Z,7.42
2019-04-04T16:30:10.598Z,6.62
2019-04-04T16:32:39.530Z,7.70
2019-04-04T16:35:08.557Z,7.45
2019-04-04T16:37:37.409Z,7.22
2019-04-04T16:40:09.312Z,6.72
2019-04-04T16:42:37.770Z,7.12
2019-04-04T16:45:07.634Z,10.03
2019-04-04T16:47:37.245Z,5.12
2019-04-04T16:50:06.457Z,12.23
2019-04-04T16:52:35.473Z,7.47
2019-04-04T16:55:04.785Z,4.87
2019-04-04T16:57:33.567Z,10.50
2019-04-04T17:00:02.412Z,5.85
2019-04-04T17:02:31.353Z,7.65
2019-04-04T17:05:00.097Z,6.53
2019-04-04T17:07:28.780Z,10.07
2019-04-04T17:09:58.248Z,8.73
2019-04-04T17:12:27.099Z,11.60
2019-04-04T17:14:56.428Z,9.43
2019-04-04T17:17:25.494Z,11.28
2019-04-04T17:19:54.399Z,5.33
2019-04-04T17:22:23.484Z,9.98
2019-04-04T17:24:52.529Z,8.33
2019-04-04T17:27:21.217Z,9.50
2019-04-04T17:29:51.473Z,5.72
2019-04-04T17:32:21.428Z,4.85
2019-04-04T17:34:51.322Z,6.20
2019-04-04T17:37:20.216Z,3.55
2019-04-04T17:39:49.331Z,8.68
2019-04-04T17:42:29.211Z,8.58
2019-04-04T17:44:49.047Z,8.33
2019-04-04T17:47:18.094Z,8.70
2019-04-04T17:49:47.307Z,10.88
2019-04-04T17:52:16.402Z,9.73
2019-04-04T17:54:45.341Z,11.10
2019-04-04T17:57:14.491Z,14.90
2019-04-04T17:59:43.410Z,14.15
2019-04-04T18:02:12.300Z,8.38
2019-04-04T18:04:48.347Z,9.90
2019-04-04T18:07:11.802Z,6.53
2019-04-04T18:09:40.591Z,6.90
2019-04-04T18:12:09.366Z,8.68
2019-04-04T18:14:38.113Z,8.35
2019-04-04T18:17:06.929Z,9.63
2019-04-04T18:19:35.684Z,9.98
2019-04-04T18:22:04.602Z,11.80
2019-04-04T18:24:33.400Z,9.37
2019-04-04T18:27:02.358Z,6.92
2019-04-04T18:29:31.089Z,14.18
2019-04-04T18:32:00.026Z,12.05
2019-04-04T18:34:29.197Z,9.18
2019-04-04T18:36:58.022Z,8.53
2019-04-04T18:39:29.754Z,8.33
2019-04-04T18:42:01.246Z,10.03
2019-04-04T18:44:30.075Z,11.88
2019-04-04T18:46:59.106Z,8.88
2019-04-04T18:49:28.204Z,7.30
2019-04-04T18:51:56.933Z,19.42
2019-04-04T18:54:25.722Z,8.83
2019-04-04T18:56:54.669Z,11.75
2019-04-04T18:59:23.599Z,8.05
2019-04-04T19:01:52.533Z,10.28
2019-04-04T19:04:21.318Z,6.47
2019-04-04T19:06:50.193Z,6.47
2019-04-04T19:09:19.995Z,9.90
2019-04-04T19:11:48.819Z,6.92
2019-04-04T19:14:18.655Z,10.88
2019-04-04T19:16:47.958Z,6.37
2019-04-04T19:19:16.655Z,7.93
2019-04-04T19:21:46.234Z,7.55
2019-04-04T19:24:17.429Z,8.05
2019-04-04T19:26:46.630Z,11.93
2019-04-04T19:29:16.425Z,8.15
2019-04-04T19:31:45.126Z,9.55
2019-04-04T19:34:13.876Z,6.40
2019-04-04T19:36:42.575Z,7.67
2019-04-04T19:39:16.382Z,10.55
2019-04-04T19:41:45.189Z,18.48
2019-04-04T19:44:14.019Z,7.78
2019-04-04T19:46:42.918Z,9.05
2019-04-04T19:49:12.125Z,10.55
2019-04-04T19:51:41.032Z,6.62
2019-04-04T19:54:09.709Z,7.95
2019-04-04T19:56:38.598Z,11.50
2019-04-04T19:59:07.274Z,14.03
2019-04-04T20:01:36.109Z,8.78
2019-04-04T20:04:05.183Z,11.88
2019-04-04T20:06:33.857Z,20.97
2019-04-04T20:09:02.538Z,11.70
2019-04-04T20:11:31.221Z,9.90
2019-04-04T20:14:00.016Z,11.27
2019-04-04T20:16:28.770Z,9.43
2019-04-04T20:18:57.778Z,8.28
2019-04-04T20:21:26.473Z,9.58
2019-04-04T20:23:55.240Z,9.23
2019-04-04T20:26:24.013Z,12.35
2019-04-04T20:28:52.737Z,11.48
2019-04-04T20:31:21.945Z,12.03
2019-04-04T20:34:00.994Z,15.77
2019-04-04T20:36:21.351Z,12.40
2019-04-04T20:38:50.463Z,13.53
2019-04-04T20:41:19.161Z,9.68
2019-04-04T20:43:48.332Z,12.60
2019-04-04T20:46:17.062Z,10.40
2019-04-04T20:48:45.786Z,13.32
2019-04-04T20:51:14.529Z,7.78
2019-04-04T20:53:43.750Z,9.27
2019-04-04T20:56:12.448Z,7.83
2019-04-04T20:58:41.182Z,7.95
2019-04-04T21:01:11.474Z,7.37
2019-04-04T21:03:40.551Z,11.80
2019-04-04T21:06:09.610Z,13.80
2019-04-04T21:08:41.432Z,7.87
2019-04-04T21:11:10.125Z,11.20
2019-04-04T21:13:39.116Z,9.40
2019-04-04T21:16:07.978Z,11.80
2019-04-04T21:18:36.938Z,10.88
2019-04-04T21:21:05.713Z,9.75
2019-04-04T21:23:34.671Z,12.70
2019-04-04T21:26:03.693Z,17.62
2019-04-04T21:28:32.792Z,11.40
2019-04-04T21:31:01.853Z,13.37
2019-04-04T21:33:30.945Z,12.80
2019-04-04T21:35:59.733Z,11.43
2019-04-04T21:38:28.606Z,9.65
2019-04-04T21:40:57.604Z,11.80
2019-04-04T21:43:26.285Z,11.28
2019-04-04T21:45:55.042Z,14.03
2019-04-04T21:48:24.001Z,12.43
2019-04-04T21:50:52.871Z,11.50
2019-04-04T21:53:21.966Z,7.53
2019-04-04T21:55:50.749Z,14.18
2019-04-04T21:58:19.576Z,11.70
2019-04-04T22:00:48.361Z,14.15
2019-04-04T22:03:17.074Z,11.38
2019-04-04T22:05:46.110Z,20.95
2019-04-04T22:08:14.892Z,13.60
2019-04-04T22:10:43.781Z,16.55
2019-04-04T22:13:12.523Z,9.23
2019-04-04T22:15:41.332Z,12.80
2019-04-04T22:18:10.071Z,11.45
2019-04-04T22:20:39.065Z,13.68
2019-04-04T22:23:08.418Z,14.35
2019-04-04T22:25:37.134Z,15.23
2019-04-04T22:28:06.165Z,10.30
2019-04-04T22:30:35.065Z,11.30
2019-04-04T22:33:04.050Z,16.40
2019-04-04T22:35:33.773Z,11.55
2019-04-04T22:38:02.834Z,14.23
2019-04-04T22:40:31.798Z,13.10
2019-04-04T22:43:00.522Z,15.00
2019-04-04T22:45:29.887Z,12.37
2019-04-04T22:47:59.094Z,12.28
2019-04-04T22:50:27.995Z,10.25
2019-04-04T22:52:57.006Z,18.02
2019-04-04T22:55:26.743Z,15.60
2019-04-04T22:57:55.825Z,12.10
2019-04-04T23:00:24.602Z,15.58
2019-04-04T23:02:57.460Z,16.62
2019-04-04T23:05:26.233Z,7.77
2019-04-04T23:07:55.240Z,13.28
2019-04-04T23:10:23.952Z,13.95
2019-04-04T23:12:52.756Z,12.75
2019-04-04T23:15:21.570Z,14.90
2019-04-04T23:17:50.254Z,12.47
2019-04-04T23:20:18.978Z,12.85
2019-04-04T23:22:53.101Z,11.65
2019-04-04T23:25:18.702Z,14.80
2019-04-04T23:27:47.614Z,15.58
2019-04-04T23:30:16.642Z,13.20
2019-04-04T23:32:45.367Z,14.80
2019-04-04T23:35:16.529Z,11.80
2019-04-04T23:37:44.818Z,22.25
2019-04-04T23:40:13.701Z,13.30
2019-04-04T23:42:42.671Z,13.10
2019-04-04T23:45:11.794Z,14.68
2019-04-04T23:47:43.113Z,14.33
2019-04-04T23:50:11.842Z,15.68
2019-04-04T23:52:40.687Z,19.75
2019-04-04T23:55:09.506Z,17.35
2019-04-04T23:57:38.176Z,15.70
